Time;durP1;ratioP1;P1;durP2;ratioP2;P2;SDS_P1;SDS_P2;PMS_P1;PMS_P2;Temp;Humidity;BMP_temperature;BMP_pressure;BME280_temperature;BME280_humidity;BME280_pressure;Samples;Min_cycle;Max_cycle;Signal;HPM_P1;HPM_P2
2023/06/29 00:03:05;;;;;;;;;;;23.70;62.80;;;;;;10327735;28;93128;-61
2023/06/29 00:08:07;;;;;;;;;;;23.70;62.90;;;;;;10325295;28;93408;-62
2023/06/29 00:13:08;;;;;;;;;;;23.70;62.90;;;;;;10330241;28;94446;-62
2023/06/29 00:18:13;;;;;;;;;;;23.70;63.00;;;;;;10330555;28;96924;-62
2023/06/29 00:23:14;;;;;;;;;;;23.70;63.10;;;;;;10331881;28;94125;-62
2023/06/29 00:28:16;;;;;;;;;;;23.70;63.10;;;;;;10331941;28;93291;-62
2023/06/29 00:33:18;;;;;;;;;;;23.70;63.00;;;;;;10332221;28;93721;-62
2023/06/29 00:38:20;;;;;;;;;;;23.60;63.10;;;;;;10331386;28;93536;-62
2023/06/29 00:43:23;;;;;;;;;;;23.60;63.00;;;;;;10331786;28;93544;-61
2023/06/29 00:48:24;;;;;;;;;;;23.60;62.90;;;;;;10329365;28;94556;-62
2023/06/29 00:53:26;;;;;;;;;;;23.60;63.00;;;;;;10331016;28;92911;-62
2023/06/29 00:58:28;;;;;;;;;;;23.60;62.90;;;;;;10330880;28;94079;-62
2023/06/29 01:03:30;;;;;;;;;;;23.60;63.00;;;;;;10329686;28;93505;-62
2023/06/29 01:08:35;;;;;;;;;;;23.60;63.00;;;;;;10327630;28;96846;-62
2023/06/29 01:13:38;;;;;;;;;;;23.60;62.90;;;;;;10330941;28;94416;-62
2023/06/29 01:18:40;;;;;;;;;;;23.60;62.80;;;;;;10331040;28;92538;-62
2023/06/29 01:23:44;;;;;;;;;;;23.50;62.70;;;;;;10331286;28;94890;-62
2023/06/29 01:28:48;;;;;;;;;;;23.50;62.70;;;;;;10329665;28;93591;-62
2023/06/29 01:33:50;;;;;;;;;;;23.60;62.80;;;;;;10330500;28;93245;-62
2023/06/29 01:38:56;;;;;;;;;;;23.60;62.70;;;;;;10328699;28;94904;-61
2023/06/29 01:44:00;;;;;;;;;;;23.60;62.60;;;;;;10330936;28;92569;-62
2023/06/29 01:49:02;;;;;;;;;;;23.60;62.60;;;;;;10328841;28;95886;-62
2023/06/29 01:54:04;;;;;;;;;;;23.60;62.50;;;;;;10330051;28;93418;-62
2023/06/29 01:59:05;;;;;;;;;;;23.60;62.50;;;;;;10326391;28;96198;-62
2023/06/29 02:04:07;;;;;;;;;;;23.60;62.40;;;;;;10329418;28;94294;-62
2023/06/29 02:09:09;;;;;;;;;;;23.60;62.40;;;;;;10328883;28;92783;-61
2023/06/29 02:14:11;;;;;;;;;;;23.60;62.30;;;;;;10329215;28;94693;-62
2023/06/29 02:19:13;;;;;;;;;;;23.60;62.30;;;;;;10328053;28;94027;-62
2023/06/29 02:24:14;;;;;;;;;;;23.60;62.30;;;;;;10328226;28;94453;-62
2023/06/29 02:29:16;;;;;;;;;;;23.70;62.30;;;;;;10309577;28;93678;-62
2023/06/29 02:34:18;;;;;;;;;;;23.60;62.20;;;;;;10329194;28;93879;-62
2023/06/29 02:39:19;;;;;;;;;;;23.70;62.10;;;;;;10327839;28;94580;-62
2023/06/29 02:44:21;;;;;;;;;;;23.70;62.20;;;;;;10327958;28;94831;-62
2023/06/29 02:49:23;;;;;;;;;;;23.70;62.00;;;;;;10324710;28;96824;-62
2023/06/29 02:54:24;;;;;;;;;;;23.70;62.10;;;;;;10310593;28;94460;-62
2023/06/29 02:59:26;;;;;;;;;;;23.60;62.10;;;;;;10327066;28;94050;-62
2023/06/29 03:04:28;;;;;;;;;;;23.60;62.10;;;;;;10326798;28;93575;-62
2023/06/29 03:09:33;;;;;;;;;;;23.60;62.10;;;;;;10326375;28;93642;-62
2023/06/29 03:14:34;;;;;;;;;;;23.60;62.30;;;;;;10327205;28;93721;-63
2023/06/29 03:19:36;;;;;;;;;;;23.60;62.10;;;;;;10327315;28;93425;-62
2023/06/29 03:24:38;;;;;;;;;;;23.60;62.20;;;;;;10327886;28;93252;-62
2023/06/29 03:29:39;;;;;;;;;;;23.60;62.30;;;;;;10326877;28;94565;-62
2023/06/29 03:34:41;;;;;;;;;;;23.60;62.20;;;;;;10325343;28;94031;-62
2023/06/29 03:39:43;;;;;;;;;;;23.60;62.30;;;;;;10323307;28;96056;-62
2023/06/29 03:44:45;;;;;;;;;;;23.60;62.30;;;;;;10327437;28;93667;-62
2023/06/29 04:22:31;;;;;;;;;;;23.50;62.50;;;;;;10251148;28;92269;-63
2023/06/29 04:27:34;;;;;;;;;;;23.50;62.60;;;;;;10249384;28;94624;-62
2023/06/29 04:32:35;;;;;;;;;;;23.50;62.60;;;;;;10250506;28;93854;-62
2023/06/29 04:37:41;;;;;;;;;;;23.50;62.60;;;;;;10248211;28;97222;-62
2023/06/29 04:42:46;;;;;;;;;;;23.50;62.70;;;;;;10248854;28;94775;-62
2023/06/29 04:47:51;;;;;;;;;;;23.50;62.60;;;;;;10691550;22;94231;-62
2023/06/29 04:52:54;;;;;;;;;;;23.50;62.60;;;;;;10330091;28;93526;-64
2023/06/29 04:57:56;;;;;;;;;;;23.50;62.20;;;;;;10330084;28;93773;-64
2023/06/29 05:02:57;;;;;;;;;;;23.50;62.10;;;;;;10307514;28;93644;-64
2023/06/29 05:07:59;;;;;;;;;;;23.50;62.00;;;;;;10330146;28;94638;-63
2023/06/29 05:13:01;;;;;;;;;;;23.60;61.90;;;;;;10314248;28;93902;-64
2023/06/29 05:18:02;;;;;;;;;;;23.60;61.90;;;;;;10330221;28;93697;-65
2023/06/29 05:23:04;;;;;;;;;;;23.60;61.90;;;;;;10313264;28;94309;-64
2023/06/29 05:28:06;;;;;;;;;;;23.70;62.00;;;;;;10309420;28;97078;-64
2023/06/29 05:33:08;;;;;;;;;;;23.70;62.00;;;;;;10330252;28;93668;-64
2023/06/29 05:38:10;;;;;;;;;;;23.70;62.20;;;;;;10328761;28;93308;-64
2023/06/29 05:43:11;;;;;;;;;;;23.70;62.80;;;;;;10312039;28;94872;-65
2023/06/29 05:48:13;;;;;;;;;;;23.80;63.60;;;;;;10328170;28;94677;-64
2023/06/29 05:53:15;;;;;;;;;;;24.30;62.80;;;;;;10327853;28;94495;-64
2023/06/29 05:58:17;;;;;;;;;;;24.70;62.50;;;;;;10329174;28;94535;-64
2023/06/29 06:03:20;;;;;;;;;;;24.70;62.30;;;;;;10323918;28;93742;-63
2023/06/29 06:08:22;;;;;;;;;;;24.60;62.60;;;;;;10309491;28;94399;-65
2023/06/29 06:13:23;;;;;;;;;;;24.50;63.40;;;;;;10325773;28;94396;-65
2023/06/29 06:18:25;;;;;;;;;;;24.40;63.60;;;;;;10310492;28;94955;-66
2023/06/29 06:23:27;;;;;;;;;;;24.40;63.70;;;;;;10322169;28;93498;-66
2023/06/29 06:28:29;;;;;;;;;;;24.30;63.60;;;;;;10324225;28;94151;-65
2023/06/29 06:33:32;;;;;;;;;;;24.30;63.30;;;;;;10326389;28;94876;-64
2023/06/29 06:38:34;;;;;;;;;;;24.20;62.80;;;;;;10328793;28;93288;-65
2023/06/29 06:43:51;;;;;;;;;;;24.20;62.70;;;;;;10327926;28;93360;-65
2023/06/29 06:48:53;;;;;;;;;;;24.20;62.70;;;;;;10326824;28;94636;-64
2023/06/29 06:53:55;;;;;;;;;;;24.20;63.00;;;;;;10328667;28;92838;-65
2023/06/29 06:58:56;;;;;;;;;;;24.10;62.90;;;;;;10326895;28;93574;-65
2023/06/29 07:03:58;;;;;;;;;;;24.10;63.00;;;;;;10328167;28;94634;-65
2023/06/29 07:09:00;;;;;;;;;;;24.10;62.90;;;;;;10323140;28;96056;-66
2023/06/29 07:14:02;;;;;;;;;;;24.10;62.90;;;;;;10327656;28;94453;-66
2023/06/29 07:19:04;;;;;;;;;;;24.10;62.80;;;;;;10328663;28;94606;-65
2023/06/29 07:24:09;;;;;;;;;;;24.10;62.70;;;;;;10317527;28;93167;-66
2023/06/29 07:29:11;;;;;;;;;;;24.10;62.70;;;;;;10334429;28;94005;-65
2023/06/29 07:34:14;;;;;;;;;;;24.00;62.50;;;;;;10334184;28;94598;-66
2023/06/29 07:39:16;;;;;;;;;;;24.00;62.50;;;;;;10334140;28;93883;-66
2023/06/29 07:44:18;;;;;;;;;;;24.00;62.50;;;;;;10334082;28;93999;-66
2023/06/29 07:49:21;;;;;;;;;;;24.00;62.50;;;;;;10332689;28;93566;-66
2023/06/29 07:54:23;;;;;;;;;;;24.00;62.50;;;;;;10334903;28;95858;-66
2023/06/29 07:59:25;;;;;;;;;;;24.00;62.50;;;;;;10329325;28;96922;-66
2023/06/29 08:04:27;;;;;;;;;;;24.00;62.50;;;;;;10332696;28;93586;-66
2023/06/29 08:09:31;;;;;;;;;;;24.00;62.40;;;;;;10331429;28;93781;-66
2023/06/29 08:14:35;;;;;;;;;;;24.00;62.40;;;;;;10333179;28;93554;-66
2023/06/29 08:19:36;;;;;;;;;;;24.00;62.40;;;;;;10332666;28;93997;-64
2023/06/29 08:24:38;;;;;;;;;;;24.00;62.40;;;;;;10332730;28;92898;-65
2023/06/29 08:29:40;;;;;;;;;;;24.00;62.40;;;;;;10333071;28;94571;-65
2023/06/29 08:34:42;;;;;;;;;;;24.00;63.40;;;;;;10333426;28;92994;-66
2023/06/29 08:39:44;;;;;;;;;;;23.90;62.30;;;;;;10332515;28;94556;-65
2023/06/29 08:44:45;;;;;;;;;;;24.00;62.30;;;;;;10332844;28;94504;-66
2023/06/29 08:49:48;;;;;;;;;;;24.00;62.30;;;;;;10328590;28;96365;-65
2023/06/29 08:54:51;;;;;;;;;;;24.00;62.30;;;;;;10331936;28;94441;-65
2023/06/29 08:59:53;;;;;;;;;;;24.00;62.30;;;;;;10331565;28;94627;-65
2023/06/29 09:04:55;;;;;;;;;;;24.00;62.20;;;;;;10331655;28;94608;-65
2023/06/29 09:09:56;;;;;;;;;;;24.00;62.30;;;;;;10331238;28;94420;-65
2023/06/29 09:14:59;;;;;;;;;;;24.00;62.20;;;;;;10331553;28;94562;-65
2023/06/29 09:20:13;;;;;;;;;;;24.00;62.20;;;;;;10331777;28;93644;-65
2023/06/29 09:25:15;;;;;;;;;;;24.00;62.00;;;;;;10332769;28;92298;-65
2023/06/29 09:30:37;;;;;;;;;;;24.00;62.00;;;;;;10330298;28;94188;-66
2023/06/29 09:35:40;;;;;;;;;;;24.00;62.00;;;;;;10331541;28;93135;-65
2023/06/29 09:40:48;;;;;;;;;;;24.00;62.00;;;;;;10327220;28;95973;-66
2023/06/29 09:45:51;;;;;;;;;;;24.00;62.00;;;;;;10328721;28;93549;-65
2023/06/29 09:50:53;;;;;;;;;;;24.00;61.90;;;;;;10330689;28;94983;-65
2023/06/29 09:56:02;;;;;;;;;;;24.00;61.90;;;;;;10330151;28;93464;-65
2023/06/29 10:01:05;;;;;;;;;;;24.00;61.80;;;;;;10330914;28;94444;-65
2023/06/29 10:06:11;;;;;;;;;;;24.00;61.70;;;;;;10329118;28;94129;-65
2023/06/29 10:11:13;;;;;;;;;;;24.10;61.70;;;;;;10329042;28;93684;-65
2023/06/29 10:16:17;;;;;;;;;;;24.10;61.50;;;;;;10330938;28;92034;-64
2023/06/29 10:21:19;;;;;;;;;;;24.20;61.50;;;;;;10327977;28;94175;-63
2023/06/29 10:26:21;;;;;;;;;;;24.10;61.40;;;;;;10328393;28;94640;-65
2023/06/29 10:31:29;;;;;;;;;;;24.20;61.40;;;;;;10326358;28;95915;-65
2023/06/29 10:36:48;;;;;;;;;;;24.20;61.40;;;;;;10329015;28;93446;-65
2023/06/29 10:41:50;;;;;;;;;;;24.10;61.40;;;;;;10329755;28;94338;-65
2023/06/29 10:46:54;;;;;;;;;;;24.20;61.40;;;;;;10327742;28;92567;-64
2023/06/29 10:52:05;;;;;;;;;;;24.20;61.50;;;;;;10327621;28;93449;-65
2023/06/29 10:57:07;;;;;;;;;;;24.20;61.50;;;;;;10327655;28;94603;-65
2023/06/29 11:02:09;;;;;;;;;;;24.20;61.50;;;;;;10329280;28;95051;-65
2023/06/29 11:07:12;;;;;;;;;;;24.20;61.50;;;;;;10329066;28;92652;-65
2023/06/29 11:12:15;;;;;;;;;;;24.20;61.40;;;;;;10328865;28;94472;-66
2023/06/29 11:17:20;;;;;;;;;;;24.20;61.50;;;;;;10328037;28;94494;-64
2023/06/29 11:22:21;;;;;;;;;;;24.20;61.40;;;;;;10324962;28;96394;-65
2023/06/29 11:27:23;;;;;;;;;;;24.20;61.40;;;;;;10327337;28;93537;-65
2023/06/29 11:32:26;;;;;;;;;;;24.20;61.30;;;;;;10327781;28;93524;-65
2023/06/29 11:37:28;;;;;;;;;;;24.20;61.30;;;;;;10327909;28;93607;-65
2023/06/29 11:42:30;;;;;;;;;;;24.20;61.30;;;;;;10327274;28;93505;-66
2023/06/29 11:47:32;;;;;;;;;;;24.30;61.20;;;;;;10327043;28;94829;-65
2023/06/29 11:52:35;;;;;;;;;;;24.30;61.20;;;;;;10326489;28;92532;-65
2023/06/29 11:57:37;;;;;;;;;;;24.30;61.10;;;;;;10328408;28;91735;-65
2023/06/29 12:02:43;;;;;;;;;;;24.30;61.10;;;;;;10326095;28;92579;-65
2023/06/29 12:07:45;;;;;;;;;;;24.30;61.00;;;;;;10330870;28;93950;-65
2023/06/29 12:12:55;;;;;;;;;;;24.30;60.90;;;;;;10332112;28;94993;-65
2023/06/29 12:18:13;;;;;;;;;;;24.30;61.00;;;;;;10333321;28;94543;-66
2023/06/29 12:23:16;;;;;;;;;;;24.40;61.00;;;;;;10332720;28;94915;-65
2023/06/29 12:28:18;;;;;;;;;;;24.30;60.90;;;;;;10332328;28;93353;-65
2023/06/29 12:33:19;;;;;;;;;;;24.30;60.90;;;;;;10332305;28;94512;-65
2023/06/29 12:38:21;;;;;;;;;;;24.30;60.90;;;;;;10333633;28;92886;-65
2023/06/29 12:43:23;;;;;;;;;;;24.30;61.00;;;;;;10332783;28;93737;-65
2023/06/29 12:48:24;;;;;;;;;;;24.30;61.00;;;;;;10332414;28;92824;-64
2023/06/29 12:53:26;;;;;;;;;;;24.30;61.00;;;;;;10332305;28;92986;-66
2023/06/29 12:58:28;;;;;;;;;;;24.20;61.00;;;;;;10332611;28;93199;-65
2023/06/29 13:03:32;;;;;;;;;;;24.20;61.10;;;;;;10329900;28;97640;-65
2023/06/29 13:08:34;;;;;;;;;;;24.20;61.20;;;;;;10331766;28;93623;-65
2023/06/29 13:13:35;;;;;;;;;;;24.20;61.50;;;;;;10329417;28;94839;-65
2023/06/29 13:18:37;;;;;;;;;;;24.20;61.70;;;;;;10331464;28;93962;-65
2023/06/29 13:23:39;;;;;;;;;;;24.10;61.70;;;;;;10331081;28;93526;-65
2023/06/29 13:28:41;;;;;;;;;;;24.10;61.90;;;;;;10330396;28;93456;-65
2023/06/29 13:33:42;;;;;;;;;;;24.10;61.90;;;;;;10331513;28;93606;-65
2023/06/29 13:38:44;;;;;;;;;;;24.10;62.10;;;;;;10330060;28;92762;-65
2023/06/29 13:43:46;;;;;;;;;;;24.10;62.20;;;;;;10329819;28;93489;-65
2023/06/29 13:48:48;;;;;;;;;;;24.10;62.20;;;;;;10331133;28;94807;-65
2023/06/29 13:53:49;;;;;;;;;;;24.10;62.30;;;;;;10327167;28;96725;-65
2023/06/29 13:58:51;;;;;;;;;;;24.00;62.20;;;;;;10329062;28;95020;-65
2023/06/29 14:03:53;;;;;;;;;;;24.00;62.30;;;;;;10331806;28;94507;-66
2023/06/29 14:08:55;;;;;;;;;;;24.00;62.30;;;;;;10327393;28;92743;-68
2023/06/29 14:13:57;;;;;;;;;;;24.00;62.40;;;;;;10330347;28;93661;-66
2023/06/29 14:18:59;;;;;;;;;;;24.00;62.40;;;;;;10329208;28;93335;-66
2023/06/29 14:24:01;;;;;;;;;;;24.00;62.40;;;;;;10329094;28;93542;-66
2023/06/29 14:29:03;;;;;;;;;;;24.10;62.30;;;;;;10329642;28;94034;-66
2023/06/29 14:34:05;;;;;;;;;;;24.10;62.30;;;;;;10326964;28;92849;-66
2023/06/29 14:39:06;;;;;;;;;;;24.10;62.20;;;;;;10328432;28;94405;-66
2023/06/29 14:44:08;;;;;;;;;;;24.10;62.10;;;;;;10326453;28;96913;-66
2023/06/29 14:49:10;;;;;;;;;;;24.20;62.10;;;;;;10328398;28;93695;-66
2023/06/29 14:54:11;;;;;;;;;;;24.20;62.00;;;;;;10326926;28;94510;-66
2023/06/29 14:59:13;;;;;;;;;;;24.20;62.00;;;;;;10327037;28;92795;-66
2023/06/29 15:04:15;;;;;;;;;;;24.20;61.90;;;;;;10327646;28;93741;-66
2023/06/29 15:09:17;;;;;;;;;;;24.20;62.20;;;;;;10327182;28;93596;-66
2023/06/29 15:14:19;;;;;;;;;;;24.20;61.90;;;;;;10327807;28;94666;-66
2023/06/29 15:19:21;;;;;;;;;;;24.20;61.70;;;;;;10328271;28;93911;-66
2023/06/29 15:24:23;;;;;;;;;;;24.20;61.70;;;;;;10327897;28;94598;-66
2023/06/29 15:29:25;;;;;;;;;;;24.20;61.50;;;;;;10328055;28;95329;-65
2023/06/29 15:34:26;;;;;;;;;;;24.30;61.40;;;;;;10323200;28;94932;-66
2023/06/29 15:39:28;;;;;;;;;;;24.30;61.50;;;;;;10326572;28;94409;-67
2023/06/29 15:44:30;;;;;;;;;;;24.30;61.90;;;;;;10336155;28;94893;-67
2023/06/29 15:49:33;;;;;;;;;;;24.30;61.80;;;;;;10332660;28;93626;-63
2023/06/29 15:54:35;;;;;;;;;;;24.40;62.50;;;;;;10334542;28;94165;-67
2023/06/29 15:59:36;;;;;;;;;;;24.40;63.90;;;;;;10334097;28;94527;-66
2023/06/29 16:04:38;;;;;;;;;;;24.50;63.50;;;;;;10333309;28;94765;-64
2023/06/29 16:09:40;;;;;;;;;;;24.70;63.50;;;;;;10333761;28;93834;-64
2023/06/29 16:14:41;;;;;;;;;;;25.00;62.20;;;;;;10332352;28;93681;-64
2023/06/29 16:19:43;;;;;;;;;;;25.00;61.40;;;;;;10331700;28;93694;-64
2023/06/29 16:24:45;;;;;;;;;;;25.00;61.80;;;;;;10329443;28;96048;-63
2023/06/29 16:29:47;;;;;;;;;;;25.00;61.40;;;;;;10313310;28;92731;-65
2023/06/29 16:34:49;;;;;;;;;;;25.00;61.50;;;;;;10314650;28;94653;-64
2023/06/29 16:39:51;;;;;;;;;;;24.90;61.20;;;;;;10333417;28;94824;-64
2023/06/29 16:44:53;;;;;;;;;;;24.90;61.30;;;;;;10332379;28;94892;-66
2023/06/29 16:49:54;;;;;;;;;;;24.90;61.70;;;;;;10331000;28;94487;-66
2023/06/29 16:54:57;;;;;;;;;;;24.80;61.60;;;;;;10328742;28;94422;-65
2023/06/29 16:59:58;;;;;;;;;;;24.80;61.60;;;;;;10331785;28;93110;-63
2023/06/29 17:05:00;;;;;;;;;;;24.80;61.30;;;;;;10330502;28;93558;-65
2023/06/29 17:10:02;;;;;;;;;;;24.70;61.20;;;;;;10330352;28;94623;-64
2023/06/29 17:15:04;;;;;;;;;;;24.70;61.20;;;;;;10328614;28;96857;-65
2023/06/29 17:20:06;;;;;;;;;;;24.70;61.10;;;;;;10330651;28;94608;-65
2023/06/29 17:25:08;;;;;;;;;;;24.60;61.20;;;;;;10329522;28;93734;-65
2023/06/29 17:30:10;;;;;;;;;;;24.60;61.20;;;;;;10329882;28;93656;-65
2023/06/29 17:35:12;;;;;;;;;;;24.60;61.30;;;;;;10330457;28;94453;-65
2023/06/29 17:40:13;;;;;;;;;;;24.60;61.30;;;;;;10330934;28;93847;-65
2023/06/29 17:45:17;;;;;;;;;;;24.60;61.30;;;;;;10330701;28;93589;-66
2023/06/29 17:50:19;;;;;;;;;;;24.50;61.30;;;;;;10331146;28;94037;-65
2023/06/29 17:55:20;;;;;;;;;;;24.50;61.30;;;;;;10330591;28;93552;-65
2023/06/29 18:00:22;;;;;;;;;;;24.50;61.30;;;;;;10311847;28;94132;-65
2023/06/29 18:05:24;;;;;;;;;;;24.50;61.30;;;;;;10326334;28;95883;-66
2023/06/29 18:10:26;;;;;;;;;;;24.50;61.50;;;;;;10328812;28;93513;-65
2023/06/29 18:15:28;;;;;;;;;;;24.50;61.80;;;;;;10329106;28;94346;-65
2023/06/29 18:20:29;;;;;;;;;;;24.50;61.70;;;;;;10330076;28;94491;-69
2023/06/29 18:25:31;;;;;;;;;;;24.60;62.10;;;;;;10328687;28;94139;-65
2023/06/29 18:30:33;;;;;;;;;;;24.60;61.90;;;;;;10328411;28;94626;-66
2023/06/29 18:35:35;;;;;;;;;;;24.60;61.80;;;;;;10310747;28;94480;-65
2023/06/29 18:40:37;;;;;;;;;;;24.70;61.90;;;;;;10311572;28;93104;-66
2023/06/29 18:45:39;;;;;;;;;;;24.80;61.20;;;;;;10328196;28;93666;-66
2023/06/29 18:50:41;;;;;;;;;;;24.80;61.20;;;;;;10328001;28;92930;-66
2023/06/29 18:55:43;;;;;;;;;;;24.90;61.50;;;;;;10325898;28;97238;-66
2023/06/29 19:00:45;;;;;;;;;;;25.00;60.50;;;;;;10329150;28;94912;-65
2023/06/29 19:05:48;;;;;;;;;;;24.90;60.10;;;;;;10310409;28;93467;-65
2023/06/29 19:10:49;;;;;;;;;;;24.90;60.50;;;;;;10327244;28;93375;-65
2023/06/29 19:15:53;;;;;;;;;;;24.90;60.30;;;;;;10333627;28;95318;-66
2023/06/29 19:20:55;;;;;;;;;;;24.90;60.50;;;;;;10339530;28;93840;-67
2023/06/29 19:25:56;;;;;;;;;;;24.90;60.40;;;;;;10341132;28;94646;-66
2023/06/29 19:30:58;;;;;;;;;;;24.90;60.30;;;;;;10340880;28;93118;-66
2023/06/29 19:36:00;;;;;;;;;;;24.90;60.40;;;;;;10341566;28;93473;-67
2023/06/29 19:41:02;;;;;;;;;;;25.10;62.30;;;;;;10340015;28;94955;-67
2023/06/29 19:46:04;;;;;;;;;;;25.20;61.20;;;;;;10338307;28;97004;-66
2023/06/29 19:51:06;;;;;;;;;;;25.20;60.90;;;;;;10339815;28;93492;-67
2023/06/29 19:56:08;;;;;;;;;;;25.10;60.50;;;;;;10341145;28;94990;-65
2023/06/29 20:01:10;;;;;;;;;;;25.10;60.30;;;;;;10340360;28;94787;-67
2023/06/29 20:06:13;;;;;;;;;;;25.10;60.30;;;;;;10340550;28;94661;-67
2023/06/29 20:11:15;;;;;;;;;;;25.00;61.00;;;;;;10340055;28;93414;-67
2023/06/29 20:16:16;;;;;;;;;;;25.00;60.10;;;;;;10321182;28;93662;-67
2023/06/29 20:21:18;;;;;;;;;;;25.00;60.20;;;;;;10339059;28;92759;-67
2023/06/29 20:26:20;;;;;;;;;;;25.00;60.70;;;;;;10336618;28;94518;-67
2023/06/29 20:31:22;;;;;;;;;;;25.10;60.20;;;;;;10333113;28;92440;-67
2023/06/29 20:36:24;;;;;;;;;;;25.20;60.00;;;;;;10328971;28;96688;-67
2023/06/29 20:41:26;;;;;;;;;;;25.20;60.00;;;;;;10333160;28;93673;-67
2023/06/29 20:46:28;;;;;;;;;;;25.10;59.90;;;;;;10331788;28;93464;-67
2023/06/29 20:51:30;;;;;;;;;;;25.00;59.90;;;;;;10332147;28;94528;-67
2023/06/29 20:56:32;;;;;;;;;;;25.00;59.90;;;;;;10331790;28;93597;-67
2023/06/29 21:01:34;;;;;;;;;;;25.00;60.30;;;;;;10331125;28;93502;-66
2023/06/29 21:06:36;;;;;;;;;;;25.00;60.60;;;;;;10314098;28;93304;-65
2023/06/29 21:11:38;;;;;;;;;;;25.10;60.30;;;;;;10332191;28;93044;-66
2023/06/29 21:16:43;;;;;;;;;;;25.10;60.00;;;;;;10331422;28;95131;-67
2023/06/29 21:21:45;;;;;;;;;;;25.10;59.80;;;;;;10332026;28;94216;-66
2023/06/29 21:26:46;;;;;;;;;;;25.10;59.50;;;;;;10329191;28;97008;-66
2023/06/29 21:31:50;;;;;;;;;;;25.10;59.30;;;;;;10330210;28;94542;-66
2023/06/29 21:36:51;;;;;;;;;;;25.00;59.10;;;;;;10330894;28;94894;-67
2023/06/29 21:41:53;;;;;;;;;;;25.00;59.00;;;;;;10330110;28;94455;-66
2023/06/29 21:46:55;;;;;;;;;;;24.90;58.80;;;;;;10312745;28;94535;-67
2023/06/29 21:51:57;;;;;;;;;;;24.90;58.60;;;;;;10329017;28;93121;-66
2023/06/29 21:56:59;;;;;;;;;;;24.80;58.50;;;;;;10330096;28;94585;-67
2023/06/29 22:02:01;;;;;;;;;;;24.80;58.30;;;;;;10312917;28;93866;-66
2023/06/29 22:07:02;;;;;;;;;;;24.70;58.20;;;;;;10312656;28;93514;-66
2023/06/29 22:12:17;;;;;;;;;;;24.70;58.10;;;;;;10330821;28;94517;-66
2023/06/29 22:17:19;;;;;;;;;;;24.60;58.10;;;;;;10326124;28;96472;-67
2023/06/29 22:22:21;;;;;;;;;;;24.60;57.90;;;;;;10329873;28;94464;-66
2023/06/29 22:27:23;;;;;;;;;;;24.60;57.90;;;;;;10328829;28;92615;-65
2023/06/29 22:32:24;;;;;;;;;;;24.50;57.90;;;;;;10329224;28;94589;-66
2023/06/29 22:37:26;;;;;;;;;;;24.40;57.80;;;;;;10312249;28;93786;-65
2023/06/29 22:42:28;;;;;;;;;;;24.40;57.80;;;;;;10329514;28;94429;-66
2023/06/29 22:47:30;;;;;;;;;;;24.40;57.70;;;;;;10329131;28;93815;-65
2023/06/29 22:52:33;;;;;;;;;;;24.30;57.60;;;;;;10311832;28;114446;-65
2023/06/29 22:57:35;;;;;;;;;;;24.30;57.60;;;;;;10310290;28;94378;-66
2023/06/29 23:02:37;;;;;;;;;;;24.20;57.40;;;;;;10328537;28;93667;-66
2023/06/29 23:07:43;;;;;;;;;;;24.20;57.40;;;;;;10326265;28;95654;-66
2023/06/29 23:12:45;;;;;;;;;;;24.20;57.30;;;;;;10328088;28;93478;-66
2023/06/29 23:17:47;;;;;;;;;;;24.20;57.40;;;;;;10329233;28;94049;-66
2023/06/29 23:22:49;;;;;;;;;;;24.10;57.20;;;;;;10327730;28;94136;-66
2023/06/29 23:27:51;;;;;;;;;;;24.10;57.20;;;;;;10309742;28;93634;-66
2023/06/29 23:32:53;;;;;;;;;;;24.10;57.10;;;;;;10327357;28;93620;-66
2023/06/29 23:37:54;;;;;;;;;;;24.10;57.00;;;;;;10326679;28;93462;-66
2023/06/29 23:42:56;;;;;;;;;;;24.10;57.00;;;;;;10327406;28;92938;-66
2023/06/29 23:47:59;;;;;;;;;;;24.00;56.90;;;;;;10327317;28;94544;-66
2023/06/29 23:53:01;;;;;;;;;;;24.00;56.90;;;;;;10326127;28;94573;-65
2023/06/29 23:58:03;;;;;;;;;;;23.90;56.80;;;;;;10324515;28;96031;-66
